createdAt,value
2019-03-22T00:00:57.327Z,101697.53
2019-03-22T00:03:27.939Z,101696.26
2019-03-22T00:05:58.610Z,101678.83
2019-03-22T00:08:29.285Z,101697.96
2019-03-22T00:10:59.645Z,101692.30
2019-03-22T00:13:30.230Z,101689.23
2019-03-22T00:16:00.532Z,101691.45
2019-03-22T00:18:32.141Z,101686.69
2019-03-22T00:21:02.793Z,101680.13
2019-03-22T00:23:33.466Z,101692.39
2019-03-22T00:26:03.873Z,101681.56
2019-03-22T00:28:35.667Z,101685.92
2019-03-22T00:31:05.981Z,101673.75
2019-03-22T00:33:36.673Z,101672.99
2019-03-22T00:36:08.176Z,101673.09
2019-03-22T00:38:38.451Z,101674.02
2019-03-22T00:41:08.710Z,101677.88
2019-03-22T00:43:39.034Z,101669.19
2019-03-22T00:46:09.275Z,101674.87
2019-03-22T00:48:39.496Z,101673.05
2019-03-22T00:51:09.742Z,101675.70
2019-03-22T00:53:39.948Z,101675.28
2019-03-22T00:56:10.192Z,101671.83
2019-03-22T00:58:40.867Z,101670.47
2019-03-22T01:01:11.220Z,101652.31
2019-03-22T01:03:41.471Z,101664.84
2019-03-22T01:06:11.698Z,101664.02
2019-03-22T01:08:41.955Z,101676.62
2019-03-22T01:11:13.665Z,101681.88
2019-03-22T01:13:45.517Z,101686.63
2019-03-22T01:16:16.874Z,101677.98
2019-03-22T01:18:47.108Z,101680.98
2019-03-22T01:21:17.721Z,101683.20
2019-03-22T01:23:47.926Z,101692.34
2019-03-22T01:26:18.161Z,101683.16
2019-03-22T01:28:48.371Z,101683.18
2019-03-22T01:31:18.591Z,101689.30
2019-03-22T01:33:49.183Z,101677.94
2019-03-22T01:36:19.490Z,101690.95
2019-03-22T01:38:49.747Z,101690.93
2019-03-22T01:41:20.022Z,101693.55
2019-03-22T01:43:50.730Z,101689.66
2019-03-22T01:46:21.015Z,101693.97
2019-03-22T01:48:51.252Z,101693.52
2019-03-22T01:51:21.487Z,101694.85
2019-03-22T01:53:52.101Z,101693.98
2019-03-22T01:56:22.744Z,101697.47
2019-03-22T01:58:53.402Z,101697.87
2019-03-22T02:01:23.696Z,101687.46
2019-03-22T02:03:53.936Z,101693.03
2019-03-22T02:06:24.150Z,101690.45
2019-03-22T02:08:55.097Z,101689.66
2019-03-22T02:11:25.703Z,101687.52
2019-03-22T02:13:56.023Z,101685.82
2019-03-22T02:16:26.589Z,101683.66
2019-03-22T02:18:56.911Z,101681.97
2019-03-22T02:21:27.496Z,101680.69
2019-03-22T02:23:57.772Z,101675.88
2019-03-22T02:26:28.013Z,101678.98
2019-03-22T02:28:58.251Z,101665.91
2019-03-22T02:31:28.459Z,101668.52
2019-03-22T02:33:58.688Z,101660.23
2019-03-22T02:36:30.268Z,101657.23
2019-03-22T02:39:00.880Z,101658.98
2019-03-22T02:41:32.829Z,101653.42
2019-03-22T02:44:03.380Z,101653.03
2019-03-22T02:46:33.666Z,101650.86
2019-03-22T02:49:04.379Z,101640.07
2019-03-22T02:51:34.792Z,101644.46
2019-03-22T02:54:05.396Z,101636.30
2019-03-22T02:56:36.053Z,101640.68
2019-03-22T02:59:06.355Z,101635.03
2019-03-22T03:01:36.640Z,101640.31
2019-03-22T03:04:07.020Z,101644.68
2019-03-22T03:06:37.366Z,101642.06
2019-03-22T03:09:07.638Z,101653.36
2019-03-22T03:11:38.271Z,101645.08
2019-03-22T03:14:08.589Z,101643.32
2019-03-22T03:16:39.150Z,101643.27
2019-03-22T03:19:09.452Z,101629.70
2019-03-22T03:21:39.719Z,101635.34
2019-03-22T03:24:11.473Z,101638.34
2019-03-22T03:26:42.181Z,101628.73
2019-03-22T03:29:12.885Z,101633.05
2019-03-22T03:31:43.175Z,101643.97
2019-03-22T03:34:13.409Z,101647.01
2019-03-22T03:36:43.602Z,101670.50
2019-03-22T03:39:13.836Z,101676.14
2019-03-22T03:41:44.156Z,101671.80
2019-03-22T03:44:14.401Z,101669.58
2019-03-22T03:46:44.904Z,101672.16
2019-03-22T03:49:15.116Z,101672.57
2019-03-22T03:51:45.795Z,101672.92
2019-03-22T03:54:16.497Z,101673.02
2019-03-22T03:56:46.807Z,101673.94
2019-03-22T03:59:17.005Z,101683.98
2019-03-22T04:01:47.251Z,101690.93
2019-03-22T04:04:17.466Z,101682.19
2019-03-22T04:06:47.698Z,101668.74
2019-03-22T04:09:17.961Z,101664.44
2019-03-22T04:11:48.520Z,101663.16
2019-03-22T04:14:19.188Z,101671.84
2019-03-22T04:16:49.821Z,101681.85
2019-03-22T04:19:20.480Z,101685.31
2019-03-22T04:21:50.768Z,101691.84
2019-03-22T04:24:21.485Z,101706.16
2019-03-22T04:26:52.149Z,101710.04
2019-03-22T04:29:22.816Z,101708.77
2019-03-22T04:31:53.116Z,101716.66
2019-03-22T04:34:23.679Z,101726.25
2019-03-22T04:36:54.175Z,101727.56
2019-03-22T04:39:25.444Z,101724.97
2019-03-22T04:41:56.035Z,101734.10
2019-03-22T04:44:26.667Z,101754.55
2019-03-22T04:46:58.151Z,101748.45
2019-03-22T04:49:31.318Z,101754.98
2019-03-22T04:52:02.220Z,101758.47
2019-03-22T04:54:37.251Z,101769.34
2019-03-22T04:57:13.071Z,101774.55
2019-03-22T04:59:47.352Z,101766.24
2019-03-22T05:02:19.308Z,101772.34
2019-03-22T05:04:50.238Z,101787.16
2019-03-22T05:07:20.931Z,101789.80
2019-03-22T05:09:52.604Z,101796.75
2019-03-22T05:12:24.929Z,101780.27
2019-03-22T05:14:58.408Z,101803.31
2019-03-22T05:17:30.326Z,101802.03
2019-03-22T05:20:01.519Z,101799.42
2019-03-22T05:22:34.443Z,101796.39
2019-03-22T05:25:05.531Z,101801.61
2019-03-22T05:27:40.720Z,101811.61
2019-03-22T05:30:33.874Z,101802.89
2019-03-22T05:33:04.562Z,101802.87
2019-03-22T05:35:34.853Z,101804.59
2019-03-22T05:38:05.433Z,101805.45
2019-03-22T05:40:37.563Z,101812.38
2019-03-22T05:43:07.789Z,101809.76
2019-03-22T05:45:38.429Z,101810.19
2019-03-22T05:48:08.703Z,101816.30
2019-03-22T05:50:39.271Z,101820.16
2019-03-22T05:53:10.829Z,101820.16
2019-03-22T05:55:41.462Z,101821.89
2019-03-22T05:58:11.785Z,101831.90
2019-03-22T06:00:42.389Z,101831.42
2019-03-22T06:03:13.021Z,101832.71
2019-03-22T06:05:43.335Z,101839.23
2019-03-22T06:08:14.008Z,101850.10
2019-03-22T06:10:44.335Z,101847.91
2019-03-22T06:13:14.564Z,101853.06
2019-03-22T06:15:44.809Z,101853.95
2019-03-22T06:18:16.081Z,101851.39
2019-03-22T06:20:47.559Z,101853.97
2019-03-22T06:23:18.218Z,101850.02
2019-03-22T06:25:48.521Z,101845.63
2019-03-22T06:28:18.766Z,101841.70
2019-03-22T06:30:49.084Z,101853.03
2019-03-22T06:33:19.297Z,101857.37
2019-03-22T06:35:49.519Z,101856.16
2019-03-22T06:38:20.102Z,101855.30
2019-03-22T06:40:50.801Z,101858.29
2019-03-22T06:43:21.437Z,101861.69
2019-03-22T06:45:51.774Z,101864.34
2019-03-22T06:48:22.040Z,101870.41
2019-03-22T06:50:52.755Z,101869.95
2019-03-22T06:53:23.041Z,101876.91
2019-03-22T06:55:53.263Z,101883.47
2019-03-22T06:58:24.288Z,101879.93
2019-03-22T07:00:54.942Z,101877.27
2019-03-22T07:03:25.520Z,101882.92
2019-03-22T07:05:56.201Z,101884.59
2019-03-22T07:08:26.882Z,101884.02
2019-03-22T07:10:57.300Z,101880.82
2019-03-22T07:13:28.645Z,101879.80
2019-03-22T07:15:59.321Z,101877.38
2019-03-22T07:18:29.612Z,101876.30
2019-03-22T07:21:00.204Z,101873.46
2019-03-22T07:23:31.460Z,101877.11
2019-03-22T07:26:02.145Z,101885.34
2019-03-22T07:28:32.499Z,101879.97
2019-03-22T07:31:02.832Z,101884.68
2019-03-22T07:33:33.074Z,101897.81
2019-03-22T07:36:03.332Z,101900.86
2019-03-22T07:38:33.573Z,101906.62
2019-03-22T07:41:03.810Z,101898.78
2019-03-22T07:43:35.215Z,101913.69
2019-03-22T07:46:06.214Z,101910.83
2019-03-22T07:48:36.902Z,101908.35
2019-03-22T07:51:07.612Z,101904.56
2019-03-22T07:53:37.924Z,101906.86
2019-03-22T07:56:09.807Z,101908.59
2019-03-22T07:58:41.142Z,101906.81
2019-03-22T08:01:11.748Z,101908.56
2019-03-22T08:03:42.438Z,101908.61
2019-03-22T08:06:12.775Z,101915.58
2019-03-22T08:08:43.358Z,101913.67
2019-03-22T08:11:14.751Z,101918.45
2019-03-22T08:13:45.374Z,101917.05
2019-03-22T08:16:15.730Z,101907.36
2019-03-22T08:18:46.303Z,101916.28
2019-03-22T08:21:17.684Z,101909.06
2019-03-22T08:23:54.378Z,101912.83
2019-03-22T08:26:25.018Z,101904.42
2019-03-22T08:28:55.670Z,101908.80
2019-03-22T08:31:26.000Z,101914.76
2019-03-22T08:33:56.201Z,101915.13
2019-03-22T08:36:26.430Z,101900.38
2019-03-22T08:38:57.045Z,101907.35
2019-03-22T08:41:27.352Z,101904.01
2019-03-22T08:44:02.598Z,101907.91
2019-03-22T08:46:32.139Z,101906.55
2019-03-22T08:49:02.875Z,101905.30
2019-03-22T08:51:34.771Z,101908.72
2019-03-22T08:54:07.780Z,101912.73
2019-03-22T08:56:39.425Z,101912.00
2019-03-22T08:59:13.393Z,101907.55
2019-03-22T09:01:44.665Z,101902.61
2019-03-22T09:04:15.412Z,101911.14
2019-03-22T09:06:45.697Z,101937.25
2019-03-22T09:09:16.089Z,101934.75
2019-03-22T09:11:47.896Z,101963.20
2019-03-22T09:14:18.371Z,101920.23
2019-03-22T09:16:48.686Z,101926.50
2019-03-22T09:19:19.410Z,101916.45
2019-03-22T09:21:50.259Z,101904.71
2019-03-22T09:24:20.725Z,101909.99
2019-03-22T09:26:52.604Z,101906.28
2019-03-22T09:29:23.392Z,101904.17
2019-03-22T09:31:55.138Z,101932.72
2019-03-22T09:34:33.534Z,101936.85
2019-03-22T09:36:58.304Z,101951.08
2019-03-22T09:39:29.005Z,101955.45
2019-03-22T09:42:00.946Z,101943.64
2019-03-22T09:44:42.877Z,101936.00
2019-03-22T09:47:03.528Z,101925.55
2019-03-22T09:49:33.771Z,101906.20
2019-03-22T09:52:04.869Z,101922.98
2019-03-22T09:54:38.771Z,101922.09
2019-03-22T09:57:11.085Z,101929.72
2019-03-22T09:59:41.383Z,101935.67
2019-03-22T10:02:13.113Z,101960.98
2019-03-22T10:04:43.539Z,101969.59
2019-03-22T10:07:13.759Z,101968.57
2019-03-22T10:09:44.450Z,101943.95
2019-03-22T10:12:16.741Z,101920.80
2019-03-22T10:14:47.562Z,101941.66
2019-03-22T10:17:18.624Z,101930.38
2019-03-22T10:19:50.344Z,101952.11
2019-03-22T10:22:20.983Z,101956.02
2019-03-22T10:24:51.337Z,101975.28
2019-03-22T10:27:22.115Z,101977.66
2019-03-22T10:29:52.404Z,101964.92
2019-03-22T10:32:23.937Z,101952.48
2019-03-22T10:34:54.939Z,101958.66
2019-03-22T10:37:25.742Z,101958.20
2019-03-22T10:39:58.217Z,101967.92
2019-03-22T10:42:28.915Z,101967.97
2019-03-22T10:44:59.649Z,101969.19
2019-03-22T10:47:32.043Z,101961.15
2019-03-22T10:50:02.370Z,101972.39
2019-03-22T10:52:32.653Z,101977.02
2019-03-22T10:55:23.488Z,101987.48
2019-03-22T10:57:35.169Z,101980.88
2019-03-22T11:00:08.780Z,101980.98
2019-03-22T11:02:39.661Z,101971.38
2019-03-22T11:05:10.240Z,101967.37
2019-03-22T11:07:40.836Z,101970.33
2019-03-22T11:10:14.966Z,101970.31
2019-03-22T11:12:45.808Z,101971.40
2019-03-22T11:15:18.311Z,101984.71
2019-03-22T11:17:49.125Z,101990.98
2019-03-22T11:20:21.043Z,101983.07
2019-03-22T11:22:51.390Z,101990.74
2019-03-22T11:25:22.047Z,101989.06
2019-03-22T11:27:52.952Z,101995.47
2019-03-22T11:30:24.481Z,101980.47
2019-03-22T11:32:54.840Z,101983.69
2019-03-22T11:35:25.355Z,101987.70
2019-03-22T11:37:56.148Z,101989.07
2019-03-22T11:40:29.325Z,101986.81
2019-03-22T11:43:08.226Z,101989.17
2019-03-22T11:45:32.401Z,101989.81
2019-03-22T11:48:03.246Z,101987.17
2019-03-22T11:50:34.089Z,101982.30
2019-03-22T11:53:06.378Z,101982.10
2019-03-22T11:55:36.588Z,101977.12
2019-03-22T11:58:06.825Z,101978.60
2019-03-22T12:00:37.571Z,101971.97
2019-03-22T12:03:07.925Z,101969.68
2019-03-22T12:05:40.548Z,101978.81
2019-03-22T12:08:11.403Z,101973.76
2019-03-22T12:10:43.675Z,101981.34
2019-03-22T12:13:14.400Z,101980.67
2019-03-22T12:15:46.673Z,101977.18
2019-03-22T12:18:20.457Z,101976.17
2019-03-22T12:20:50.831Z,101981.59
2019-03-22T12:23:21.489Z,101962.17
2019-03-22T12:25:52.125Z,101955.05
2019-03-22T12:28:24.287Z,101958.30
2019-03-22T12:30:54.944Z,101955.31
2019-03-22T12:33:25.229Z,101943.30
2019-03-22T12:35:55.995Z,101945.75
2019-03-22T12:38:26.632Z,101948.23
2019-03-22T12:40:58.233Z,101945.69
2019-03-22T12:43:31.457Z,101949.76
2019-03-22T12:46:03.475Z,101940.81
2019-03-22T12:48:35.799Z,101938.34
2019-03-22T12:51:06.190Z,101944.66
2019-03-22T12:53:36.462Z,101947.88
2019-03-22T12:56:06.654Z,101949.61
2019-03-22T12:58:39.977Z,101951.61
2019-03-22T13:01:10.744Z,101949.09
2019-03-22T13:03:41.432Z,101942.11
2019-03-22T13:06:11.716Z,101935.11
2019-03-22T13:08:41.926Z,101928.60
2019-03-22T13:11:12.288Z,101927.38
2019-03-22T13:13:42.510Z,101923.31
2019-03-22T13:16:12.749Z,101922.70
2019-03-22T13:18:50.022Z,101940.95
2019-03-22T13:21:16.785Z,101933.45
2019-03-22T13:23:47.178Z,101937.80
2019-03-22T13:26:17.910Z,101946.00
2019-03-22T13:28:48.267Z,101941.50
2019-03-22T13:31:18.504Z,101944.59
2019-03-22T13:33:48.714Z,101948.72
2019-03-22T13:36:18.962Z,101946.00
2019-03-22T13:38:50.346Z,101943.16
2019-03-22T13:41:20.940Z,101944.08
2019-03-22T13:43:52.497Z,101940.28
2019-03-22T13:46:22.790Z,101933.28
2019-03-22T13:48:53.112Z,101938.40
2019-03-22T13:51:23.753Z,101925.06
2019-03-22T13:53:54.498Z,101920.69
2019-03-22T13:56:26.381Z,101927.15
2019-03-22T13:58:56.766Z,101927.83
2019-03-22T14:01:27.456Z,101929.27
2019-03-22T14:03:58.251Z,101919.86
2019-03-22T14:06:28.543Z,101917.56
2019-03-22T14:08:59.200Z,101905.03
2019-03-22T14:11:29.576Z,101903.15
2019-03-22T14:14:01.919Z,101894.19
2019-03-22T14:16:32.565Z,101892.83
2019-03-22T14:19:04.089Z,101895.88
2019-03-22T14:21:34.780Z,101892.98
2019-03-22T14:24:05.626Z,101896.75
2019-03-22T14:26:36.356Z,101895.67
2019-03-22T14:29:06.652Z,101902.98
2019-03-22T14:31:36.861Z,101898.31
2019-03-22T14:34:07.182Z,101904.64
2019-03-22T14:36:37.411Z,101897.32
2019-03-22T14:39:08.962Z,101896.55
2019-03-22T14:41:39.195Z,101900.20
2019-03-22T14:44:09.404Z,101897.61
2019-03-22T14:46:40.007Z,101898.89
2019-03-22T14:49:10.710Z,101912.27
2019-03-22T14:51:41.023Z,101915.61
2019-03-22T14:54:11.235Z,101913.33
2019-03-22T14:56:41.459Z,101921.30
2019-03-22T14:59:12.046Z,101922.45
2019-03-22T15:01:42.354Z,101929.64
2019-03-22T15:04:12.681Z,101922.78
2019-03-22T15:06:42.902Z,101920.73
2019-03-22T15:09:13.290Z,101935.31
2019-03-22T15:11:45.443Z,101932.70
2019-03-22T15:14:33.626Z,101922.36
2019-03-22T15:17:14.557Z,101928.48
2019-03-22T15:19:49.769Z,101918.92
2019-03-22T15:22:37.624Z,101921.28
2019-03-22T15:25:17.607Z,101924.78
2019-03-22T15:28:06.096Z,101920.89
2019-03-22T15:30:54.901Z,101927.64
2019-03-22T15:33:34.223Z,101925.44
2019-03-22T15:36:19.193Z,101923.39
2019-03-22T15:39:08.102Z,101908.96
2019-03-22T15:41:39.310Z,101910.28
2019-03-22T15:44:09.674Z,101916.45
2019-03-22T15:46:39.977Z,101917.21
2019-03-22T15:49:20.755Z,101914.04
2019-03-22T15:51:56.122Z,101924.93
2019-03-22T15:54:29.532Z,101920.70
2019-03-22T15:57:10.167Z,101916.98
2019-03-22T15:59:40.546Z,101926.81
2019-03-22T16:02:10.850Z,101925.54
2019-03-22T16:04:41.057Z,101919.87
2019-03-22T16:07:11.292Z,101918.02
2019-03-22T16:09:41.610Z,101919.11
2019-03-22T16:12:11.965Z,101927.05
2019-03-22T16:14:42.541Z,101925.80
2019-03-22T16:17:13.201Z,101932.31
2019-03-22T16:19:43.489Z,101932.95
2019-03-22T16:22:15.289Z,101934.89
2019-03-22T16:24:45.580Z,101926.70
2019-03-22T16:27:16.239Z,101929.46
2019-03-22T16:29:46.945Z,101928.28
2019-03-22T16:32:17.228Z,101929.72
2019-03-22T16:34:47.850Z,101930.60
2019-03-22T16:37:18.199Z,101928.53
2019-03-22T16:39:48.852Z,101927.79
2019-03-22T16:42:19.198Z,101933.98
2019-03-22T16:44:49.812Z,101922.36
2019-03-22T16:47:21.394Z,101926.92
2019-03-22T16:49:51.604Z,101932.66
2019-03-22T16:52:22.284Z,101934.90
2019-03-22T16:54:52.588Z,101947.98
2019-03-22T16:57:23.186Z,101937.11
2019-03-22T16:59:53.473Z,101946.77
2019-03-22T17:02:24.079Z,101945.95
2019-03-22T17:04:54.709Z,101947.34
2019-03-22T17:07:25.674Z,101946.53
2019-03-22T17:09:56.324Z,101946.57
2019-03-22T17:12:26.637Z,101950.51
2019-03-22T17:14:59.572Z,101941.39
2019-03-22T17:17:31.539Z,101944.06
2019-03-22T17:20:01.934Z,101953.23
2019-03-22T17:22:32.229Z,101952.81
2019-03-22T17:25:02.585Z,101941.53
2019-03-22T17:27:32.901Z,101946.73
2019-03-22T17:30:04.475Z,101939.74
2019-03-22T17:32:34.702Z,101951.86
2019-03-22T17:35:09.354Z,101952.27
2019-03-22T17:37:39.995Z,101942.23
2019-03-22T17:40:10.867Z,101949.11
2019-03-22T17:42:41.430Z,101951.23
2019-03-22T17:45:15.625Z,101958.97
2019-03-22T17:47:46.368Z,101964.57
2019-03-22T17:50:16.925Z,101965.39
2019-03-22T17:52:47.308Z,101961.02
2019-03-22T17:55:17.544Z,101960.52
2019-03-22T17:57:47.882Z,101970.00
2019-03-22T18:00:27.739Z,101965.56
2019-03-22T18:02:58.018Z,101967.15
2019-03-22T18:05:28.307Z,101971.77
2019-03-22T18:08:00.168Z,101965.52
2019-03-22T18:10:30.417Z,101969.32
2019-03-22T18:13:01.062Z,101963.98
2019-03-22T18:15:31.412Z,101963.40
2019-03-22T18:18:03.527Z,101962.84
2019-03-22T18:20:33.863Z,101961.45
2019-03-22T18:23:04.102Z,101969.54
2019-03-22T18:25:34.691Z,101971.50
2019-03-22T18:28:05.339Z,101973.09
2019-03-22T18:30:35.660Z,101978.63
2019-03-22T18:33:06.254Z,101973.31
2019-03-22T18:35:36.587Z,101979.73
2019-03-22T18:38:06.862Z,101973.99
2019-03-22T18:40:37.196Z,101980.01
2019-03-22T18:43:07.416Z,101972.98
2019-03-22T18:45:37.628Z,101981.11
2019-03-22T18:48:09.379Z,101980.13
2019-03-22T18:50:39.958Z,101982.16
2019-03-22T18:53:10.245Z,101984.17
2019-03-22T18:55:40.822Z,101983.22
2019-03-22T18:58:11.133Z,101977.08
2019-03-22T19:00:41.763Z,101969.14
2019-03-22T19:03:12.057Z,101967.34
2019-03-22T19:05:43.965Z,101968.95
2019-03-22T19:08:14.521Z,101975.83
2019-03-22T19:10:45.079Z,101973.97
2019-03-22T19:13:15.366Z,101978.13
2019-03-22T19:15:45.931Z,101977.95
2019-03-22T19:18:16.660Z,101972.17
2019-03-22T19:20:46.994Z,101974.19
2019-03-22T19:23:18.203Z,101970.18
2019-03-22T19:25:48.798Z,101969.14
2019-03-22T19:28:19.115Z,101972.55
2019-03-22T19:30:49.322Z,101967.27
2019-03-22T19:33:19.592Z,101967.59
2019-03-22T19:35:49.812Z,101970.86
2019-03-22T19:38:20.079Z,101970.73
2019-03-22T19:40:50.286Z,101977.03
2019-03-22T19:43:20.554Z,101966.97
2019-03-22T19:45:51.602Z,101970.33
2019-03-22T19:48:21.839Z,101962.42
2019-03-22T19:50:52.086Z,101964.06
2019-03-22T19:53:23.876Z,101963.96
2019-03-22T19:55:54.150Z,101960.81
2019-03-22T19:58:24.708Z,101960.77
2019-03-22T20:00:55.015Z,101962.88
2019-03-22T20:03:25.254Z,101960.59
2019-03-22T20:05:55.561Z,101956.61
2019-03-22T20:08:25.775Z,101961.70
2019-03-22T20:10:55.994Z,101966.84
2019-03-22T20:13:26.239Z,101977.26
2019-03-22T20:15:56.516Z,101977.72
2019-03-22T20:18:26.714Z,101976.42
2019-03-22T20:20:57.277Z,101977.95
2019-03-22T20:23:27.912Z,101967.91
2019-03-22T20:25:58.569Z,101965.17
2019-03-22T20:28:28.872Z,101969.31
2019-03-22T20:30:59.114Z,101961.41
2019-03-22T20:33:29.432Z,101963.08
2019-03-22T20:35:59.710Z,101958.63
2019-03-22T20:38:30.417Z,101959.34
2019-03-22T20:41:01.039Z,101957.52
2019-03-22T20:43:31.703Z,101957.81
2019-03-22T20:46:03.108Z,101967.20
2019-03-22T20:48:33.693Z,101967.91
2019-03-22T20:51:04.408Z,101969.07
2019-03-22T20:53:34.701Z,101967.28
2019-03-22T20:56:04.927Z,101972.82
2019-03-22T20:58:35.182Z,101970.73
2019-03-22T21:01:05.816Z,101976.28
2019-03-22T21:03:36.187Z,101980.61
2019-03-22T21:06:06.771Z,101988.27
2019-03-22T21:08:37.300Z,101982.15
2019-03-22T21:11:07.491Z,101991.89
2019-03-22T21:13:37.718Z,101984.44
2019-03-22T21:16:07.971Z,101981.72
2019-03-22T21:18:38.217Z,101984.14
2019-03-22T21:21:08.473Z,101976.22
2019-03-22T21:23:38.697Z,101979.53
2019-03-22T21:26:09.009Z,101987.09
2019-03-22T21:28:39.584Z,101993.00
2019-03-22T21:31:09.913Z,101990.38
2019-03-22T21:33:40.212Z,101985.54
2019-03-22T21:36:10.414Z,101990.52
2019-03-22T21:38:40.740Z,101984.77
2019-03-22T21:41:11.313Z,101985.45
2019-03-22T21:43:41.618Z,101990.42
2019-03-22T21:46:11.841Z,101995.52
2019-03-22T21:48:42.102Z,101992.90
2019-03-22T21:51:12.385Z,101991.10
2019-03-22T21:53:42.824Z,101982.80
2019-03-22T21:56:13.430Z,101991.69
2019-03-22T21:58:44.192Z,101993.86
2019-03-22T22:01:14.489Z,101986.03
2019-03-22T22:03:44.761Z,101980.87
2019-03-22T22:06:14.973Z,101977.64
2019-03-22T22:08:45.196Z,101980.67
2019-03-22T22:11:15.807Z,101974.03
2019-03-22T22:13:46.459Z,101983.33
2019-03-22T22:16:17.126Z,101976.99
2019-03-22T22:18:49.946Z,101976.74
2019-03-22T22:21:21.331Z,101974.84
2019-03-22T22:23:53.088Z,101977.27
2019-03-22T22:26:23.768Z,101979.23
2019-03-22T22:28:54.084Z,101974.80
2019-03-22T22:31:24.299Z,101973.83
2019-03-22T22:33:54.593Z,101979.44
2019-03-22T22:36:24.928Z,101976.35
2019-03-22T22:38:55.211Z,101978.62
2019-03-22T22:41:25.786Z,101977.73
2019-03-22T22:43:56.089Z,101981.70
2019-03-22T22:46:26.696Z,101985.98
2019-03-22T22:48:57.396Z,101978.72
2019-03-22T22:51:29.023Z,101981.02
2019-03-22T22:53:59.405Z,101984.83
2019-03-22T22:56:29.660Z,101974.58
2019-03-22T22:58:59.884Z,101967.27
2019-03-22T23:01:30.129Z,101969.48
2019-03-22T23:04:00.742Z,101970.66
2019-03-22T23:06:31.393Z,101961.90
2019-03-22T23:09:01.681Z,101963.91
2019-03-22T23:11:33.896Z,101967.91
2019-03-22T23:14:04.601Z,101970.84
2019-03-22T23:16:34.903Z,101971.20
2019-03-22T23:19:05.167Z,101968.03
2019-03-22T23:21:35.446Z,101967.75
2019-03-22T23:24:06.022Z,101969.64
2019-03-22T23:26:36.685Z,101974.22
2019-03-22T23:29:08.415Z,101966.33
2019-03-22T23:31:39.134Z,101968.27
2019-03-22T23:34:09.856Z,101969.68
2019-03-22T23:36:40.142Z,101969.13
2019-03-22T23:39:10.393Z,101965.57
2019-03-22T23:41:40.617Z,101959.32
2019-03-22T23:44:10.867Z,101959.09
2019-03-22T23:46:41.446Z,101957.69
2019-03-22T23:49:11.767Z,101959.91
2019-03-22T23:51:42.001Z,101959.27
2019-03-22T23:54:12.609Z,101955.59
2019-03-22T23:56:43.283Z,101951.18
2019-03-22T23:59:14.161Z,101947.39
